• Join FlightAware (Why Join?)
  • Login
  • US Flag 
08:05AM EDT


 

Airport Tracker/Info


-or-


 

Live Flight TrackerFlight Track Log ✈ AAL1459 ✈ 19-Aug-2014 ✈ KORD - KSFO

Flight Track Log - Related Links

Times and Time Zones

All times are in EDT time to prevent confusion due to time zone crossing. See the AAL1459 flight status page for this flight to view local times or setup timezone preferences in your user account.

Time Position Orientation Groundspeed Altitude Reporting Facility
EDT Latitude Longitude Course Direction KTS MPH feet Rate Location/Type
08:50PM 41.9683 -87.9521 267° West 160 184 2,300  Level FlightAware ADS-B (KMDW)
08:50PM 41.9673 -87.9732 267° West 182 209 2,700 780 Climbing FlightAware ADS-B (KMDW)
08:51PM 41.9668 -87.9842 267° West 197 227 2,900 1,980 Climbing FlightAware ADS-B (KMDW)
08:51PM 41.9648 -88.0277 266° West 228 262 4,200 3,000 Climbing FlightAware ADS-B (KMDW)
08:52PM 41.9620 -88.0881 267° West 247 284 5,900 1,980 Climbing FlightAware ADS-B (KMDW)
08:52PM 41.9602 -88.1192 263° West 257 296 6,200 420 Climbing FlightAware ADS-B (KMDW)
08:52PM 41.9564 -88.1491 259° West 258 297 6,200  Level FlightAware ADS-B (KMDW)
08:53PM 41.9552 -88.1764 283° West 259 298 6,200  Level FlightAware ADS-B (KMDW)
08:53PM 41.9635 -88.2060 296° West 259 298 6,200  Level FlightAware ADS-B (KMDW)
08:53PM 41.9775 -88.2476 294° West 258 297 6,200 1,260 Level FlightAware ADS-B (KMDW)
08:54PM 41.9995 -88.3169 293° West 266 306 7,800 2,400 Climbing FlightAware ADS-B (KMDW)
08:54PM 42.0093 -88.3474 294° West 268 308 8,900 3,000 Climbing FlightAware ADS-B (KMDW)
08:55PM 42.0293 -88.4069 295° West 275 316 10,800 1,980 Climbing FlightAware ADS-B (KMDW)
08:56PM 42.0647 -88.5127 294° West 331 381 12,400 1,860 Climbing FlightAware ADS-B (KMDW)
08:57PM 42.1040 -88.6308 294° West 358 412 14,600 2,220 Climbing FlightAware ADS-B (KMDW)
08:58PM 42.1456 -88.7557 294° West 370 426 16,900 2,220 Climbing FlightAware ADS-B (KMDW)
08:59PM 42.1588 -88.8054 281° West 377 434 17,700 2,040 Climbing FlightAware ADS-B (KMDW)
08:59PM 42.1614 -88.8934 268° West 385 443 19,000 2,040 Climbing FlightAware ADS-B (KMDW)
09:00PM 42.1594 -88.9672 268° West 390 449 20,000 1,980 Climbing FlightAware ADS-B (KMDW)
09:00PM 42.1571 -89.0559 268° West 398 458 21,200 1,860 Climbing FlightAware ADS-B (KMDW)
09:01PM 42.1530 -89.2098 268° West 408 470 23,100 1,740 Climbing FlightAware ADS-B (KMDW)
09:02PM 42.1491 -89.3459 268° West 416 479 24,700 1,560 Climbing FlightAware ADS-B (KMDW)
09:03PM 42.1445 -89.5165 268° West 424 488 26,300 1,380 Climbing FlightAware ADS-B (KMDW)
09:04PM 42.1394 -89.6875 268° West 433 498 27,700 1,020 Climbing FlightAware ADS-B (KMDW)
09:05PM 42.1374 -89.7505 268° West 437 503 28,100 1,260 Climbing FlightAware ADS-B (KMDW)
09:06PM 42.1331 -89.8785 267° West 438 504 29,400 1,260 Climbing FlightAware ADS-B (KMDW)
09:11PM 42.1457 -90.7311 276° West 412 474 35,900 1,080 Climbing FlightAware ADS-B (KCID)
09:11PM 42.1516 -90.8098 276° West 413 475 36,000 60 Climbing FlightAware ADS-B (KCID)
09:12PM 42.1600 -90.9213 276° West 413 475 36,000  Level FlightAware ADS-B (KCID)
09:13PM 42.1661 -91.0044 276° West 413 475 36,000  Level FlightAware ADS-B (KCID)
09:14PM 42.1751 -91.1269 276° West 412 474 36,000  Level FlightAware ADS-B (KCID)
09:14PM 42.1809 -91.2080 275° West 412 474 36,000  Level FlightAware ADS-B (KCID)
09:15PM 42.1864 -91.2847 275° West 411 473 36,000  Level FlightAware ADS-B (KCID)
09:15PM 42.1911 -91.3529 275° West 411 473 36,000  Level FlightAware ADS-B (KCID)
09:16PM 42.1999 -91.4795 275° West 410 472 36,000  Level FlightAware ADS-B (KCID)
09:16PM 42.2055 -91.5592 276° West 410 472 36,000  Level FlightAware ADS-B (KCID)
09:17PM 42.2134 -91.6759 275° West 411 473 36,000  Level FlightAware ADS-B (KCID)
09:18PM 42.2176 -91.7393 275° West 412 474 36,000  Level FlightAware ADS-B (KCID)
09:18PM 42.2238 -91.8320 275° West 413 475 36,000  Level FlightAware ADS-B (KCID)
09:19PM 42.2292 -91.9143 275° West 414 476 36,000  Level FlightAware ADS-B (KCID)
09:19PM 42.2341 -91.9908 275° West 416 479 36,000  Level FlightAware ADS-B (KCID)
09:20PM 42.2402 -92.0846 275° West 417 480 36,000  Level FlightAware ADS-B (KCID)
09:21PM 42.2505 -92.2477 275° West 418 481 36,000  Level FlightAware ADS-B (KCID)
09:22PM 42.2573 -92.3594 275° West 418 481 36,000  Level FlightAware ADS-B (KCID)
09:22PM 42.2633 -92.4576 275° West 420 483 36,000  Level FlightAware ADS-B (KCID)
09:22PM 42.2656 -92.4950 275° West 418 481 36,000  Level FlightAware ADS-B (KSGS)
09:23PM 42.2677 -92.5290 275° West 419 482 36,000  Level FlightAware ADS-B (KFOD)
09:23PM 42.2719 -92.6003 275° West 419 482 36,000  Level FlightAware ADS-B (KSGS)
09:24PM 42.2759 -92.6683 275° West 420 483 36,000  Level FlightAware ADS-B (KFOD)
09:24PM 42.2776 -92.6967 275° West 420 483 36,000  Level FlightAware ADS-B (KSGS)
09:24PM 42.2819 -92.7709 275° West 421 484 36,000  Level FlightAware ADS-B (KFOD)
09:24PM 42.2815 -92.7643 275° West 421 484 36,000  Level FlightAware ADS-B (KSGS)
09:25PM 42.2868 -92.8562 275° West 422 486 36,000  Level FlightAware ADS-B (KFOD)
09:25PM 42.2917 -92.9419 274° West 422 486 36,000  Level FlightAware ADS-B (KFOD)
09:25PM 42.2932 -92.9684 275° West 423 487 36,000  Level FlightAware ADS-B (KSGS)
09:26PM 42.2976 -93.0477 275° West 423 487 36,000  Level FlightAware ADS-B (KSGS)
09:26PM 42.2975 -93.0448 274° West 423 487 36,000  Level FlightAware ADS-B (KFOD)
09:26PM 42.3018 -93.1245 275° West 423 487 36,000  Level FlightAware ADS-B (KSGS)
09:27PM 42.3062 -93.2048 275° West 423 487 36,000  Level FlightAware ADS-B (KSGS)
09:27PM 42.3094 -93.2649 274° West 422 486 36,000  Level FlightAware ADS-B (KFOD)
09:27PM 42.3100 -93.2754 275° West 422 486 36,000  Level FlightAware ADS-B (KSGS)
09:28PM 42.3127 -93.3261 274° West 422 486 36,000  Level FlightAware ADS-B (KFOD)
09:28PM 42.3182 -93.4326 275° West 422 486 36,000  Level FlightAware ADS-B (KSGS)
09:29PM 42.3197 -93.4638 274° West 422 486 36,000  Level FlightAware ADS-B (KFOD)
09:29PM 42.3255 -93.5785 274° West 421 484 36,000  Level FlightAware ADS-B (KFOD)
09:30PM 42.3307 -93.6790 274° West 421 484 36,000  Level FlightAware ADS-B (KFOD)
09:30PM 42.3316 -93.6978 274° West 421 484 36,000  Level FlightAware ADS-B (KSGS)
09:31PM 42.3363 -93.7909 274° West 421 484 36,000  Level FlightAware ADS-B (KFOD)
09:31PM 42.3414 -93.8938 274° West 420 483 36,000  Level FlightAware ADS-B (KFOD)
09:32PM 42.3462 -93.9986 274° West 421 484 36,000  Level FlightAware ADS-B (KFOD)
09:32PM 42.3462 -93.9973 274° West 420 483 36,000  Level FlightAware ADS-B (KSGS)
09:33PM 42.3498 -94.0787 274° West 420 483 36,000  Level FlightAware ADS-B (KSGS)
09:33PM 42.3509 -94.1023 274° West 421 484 36,000  Level FlightAware ADS-B (KFOD)
09:33PM 42.3537 -94.1629 274° West 421 484 36,000  Level FlightAware ADS-B (KSGS)
09:33PM 42.3556 -94.2029 274° West 422 486 36,000  Level FlightAware ADS-B (KFOD)
09:34PM 42.3574 -94.2407 274° West 421 484 36,000  Level FlightAware ADS-B (KSGS)
09:34PM 42.3605 -94.3117 273° West 421 484 36,000  Level FlightAware ADS-B (KFOD)
09:34PM 42.3602 -94.3041 274° West 420 483 36,000  Level FlightAware ADS-B (KSGS)
09:35PM 42.3642 -94.3995 274° West 420 483 36,000  Level FlightAware ADS-B (KSGS)
09:35PM 42.3650 -94.4164 273° West 421 484 36,000  Level FlightAware ADS-B (KFOD)
09:35PM 42.3675 -94.4741 274° West 420 483 36,000  Level FlightAware ADS-B (KSGS)
09:35PM 42.3691 -94.5110 273° West 421 484 36,000  Level FlightAware ADS-B (KFOD)
09:36PM 42.3710 -94.5559 274° West 420 483 36,000  Level FlightAware ADS-B (KSGS)
09:36PM 42.3725 -94.5925 273° West 421 484 36,000  Level FlightAware ADS-B (KFOD)
09:37PM 42.3780 -94.7241 273° West 420 483 36,000  Level FlightAware ADS-B (KFOD)
09:37PM 42.3795 -94.7606 274° West 419 482 36,000  Level FlightAware ADS-B (KSGS)
09:37PM 42.3823 -94.8310 273° West 419 482 36,000  Level FlightAware ADS-B (KFOD)
09:38PM 42.3837 -94.8670 274° West 419 482 36,000  Level FlightAware ADS-B (KSGS)
09:38PM 42.3864 -94.9380 273° West 418 481 36,000  Level FlightAware ADS-B (KFOD)
09:39PM 42.3903 -95.0428 273° West 416 479 36,000  Level FlightAware ADS-B (KFOD)
09:39PM 42.3946 -95.1480 273° West 414 476 36,000  Level FlightAware ADS-B (KFOD)
09:40PM 42.3980 -95.2442 273° West 412 474 36,000  Level FlightAware ADS-B (KFOD)
09:41PM 42.4010 -95.3301 273° West 409 471 36,000  Level FlightAware ADS-B (KFOD)
09:41PM 42.4048 -95.4385 273° West 406 467 36,000  Level FlightAware ADS-B (KFOD)
09:42PM 42.4088 -95.5518 273° West 402 463 36,000  Level FlightAware ADS-B (KFOD)
09:43PM 42.4153 -95.7557 273° West 399 459 36,000  Level FlightAware ADS-B (KFOD)
09:44PM 42.4185 -95.8560 272° West 402 463 36,000  Level FlightAware ADS-B (KFOD)
09:45PM 42.4214 -95.9558 272° West 403 464 36,000  Level FlightAware ADS-B (KFOD)
09:46PM 42.4261 -96.0936 272° West 400 460 36,000  Level Minneapolis Center
09:47PM 42.4297 -96.2431 272° West 400 460 36,000  Level Minneapolis Center
09:48PM 42.4353 -96.4244 272° West 401 461 36,000  Level Minneapolis Center
09:49PM 42.4386 -96.5739 272° West 401 461 36,000  Level Minneapolis Center
09:50PM 42.4419 -96.7258 272° West 401 461 36,000  Level Minneapolis Center
09:51PM 42.4453 -96.8792 272° West 405 466 36,000  Level Minneapolis Center
09:52PM 42.4481 -97.0308 271° West 405 466 36,000  Level Minneapolis Center
09:53PM 42.4517 -97.1833 272° West 405 466 36,000  Level Minneapolis Center
09:54PM 42.4547 -97.3356 272° West 405 466 36,000  Level Minneapolis Center
09:55PM 42.4572 -97.5183 271° West 405 466 36,000  Level Minneapolis Center
09:56PM 42.4600 -97.6700 271° West 405 466 36,000  Level Minneapolis Center
09:57PM 42.4617 -97.8244 271° West 406 467 36,000  Level Minneapolis Center
09:58PM 42.4650 -97.9778 272° West 407 468 36,000  Level Minneapolis Center
09:59PM 42.4658 -98.1314 270° West 407 468 36,000  Level Minneapolis Center
10:00PM 42.4681 -98.2872 271° West 410 472 36,000 -540 Level Minneapolis Center
10:01PM 42.4700 -98.4411 271° West 410 472 35,000 -1,020 Descending Minneapolis Center
10:02PM 42.4706 -98.6281 270° West 412 474 34,000 -540 Descending Minneapolis Center
10:03PM 42.4608 -98.7856 265° West 418 481 34,000  Level Minneapolis Center
10:04PM 42.4456 -98.9431 263° West 420 483 34,000  Level Minneapolis Center
10:05PM 42.4300 -99.0983 262° West 420 483 34,000  Level Minneapolis Center
10:06PM 42.4128 -99.2544 262° West 420 483 34,000  Level Minneapolis Center
10:07PM 42.3967 -99.4122 262° West 421 484 34,000  Level Minneapolis Center
10:08PM 42.3797 -99.5725 262° West 427 491 34,000  Level Minneapolis Center
10:09PM 42.3631 -99.7308 262° West 427 491 34,000  Level Minneapolis Center
10:10PM 42.3458 -99.8889 262° West 427 491 34,000  Level Minneapolis Center
10:11PM 42.3239 -100.0794 261° West 428 493 34,000  Level Minneapolis Center
10:12PM 42.3064 -100.2372 262° West 427 491 34,000  Level Minneapolis Center
10:13PM 42.2892 -100.3931 262° West 426 490 34,000  Level Minneapolis Center
10:15PM 42.2714 -100.5475 261° West 423 487 34,000  Level Minneapolis Center
10:20PM 42.3095 -101.4220 276° West 407 468 34,000  Level FlightAware ADS-B (KEIK)
10:22PM 42.3354 -101.7129 283° West 396 456 34,000  Level FlightAware ADS-B (KEIK)
10:23PM 42.3570 -101.8429 283° West 392 451 34,000  Level FlightAware ADS-B (KEIK)
10:24PM 42.3736 -101.9386 283° West 392 451 34,000  Level FlightAware ADS-B (KEIK)
10:24PM 42.3853 -102.0295 270° West 393 452 34,000  Level FlightAware ADS-B (KEIK)
10:25PM 42.3788 -102.1268 263° West 394 453 34,000  Level FlightAware ADS-B (KEIK)
10:26PM 42.3706 -102.2250 264° West 397 457 34,000  Level FlightAware ADS-B (KEIK)
10:26PM 42.3623 -102.3316 264° West 400 460 34,000  Level FlightAware ADS-B (KEIK)
10:27PM 42.3539 -102.4356 264° West 410 472 34,000  Level FlightAware ADS-B (KEIK)
10:28PM 42.3449 -102.5417 264° West 422 486 34,000  Level FlightAware ADS-B (KEIK)
10:28PM 42.3369 -102.6351 264° West 424 488 34,000  Level FlightAware ADS-B (KEIK)
10:29PM 42.3286 -102.7315 263° West 427 491 34,000  Level FlightAware ADS-B (KEIK)
10:30PM 42.3197 -102.8339 263° West 430 495 34,000  Level FlightAware ADS-B (KEIK)
10:30PM 42.3078 -102.9701 263° West 433 498 34,000  Level FlightAware ADS-B (KEIK)
10:31PM 42.2988 -103.0703 263° West 434 499 34,000  Level FlightAware ADS-B (KEIK)
10:32PM 42.2890 -103.1800 263° West 435 501 34,000  Level FlightAware ADS-B (KEIK)
10:32PM 42.2796 -103.2828 263° West 435 501 34,000  Level FlightAware ADS-B (KEIK)
10:33PM 42.2684 -103.4039 263° West 435 501 34,000  Level FlightAware ADS-B (KEIK)
10:34PM 42.2583 -103.5127 263° West 435 501 34,000  Level FlightAware ADS-B (KEIK)
10:34PM 42.2485 -103.6174 263° West 434 499 34,000  Level FlightAware ADS-B (KEIK)
10:35PM 42.2374 -103.7336 263° West 434 499 34,000  Level FlightAware ADS-B (KEIK)
10:36PM 42.2276 -103.8360 263° West 434 499 34,000  Level FlightAware ADS-B (KEIK)
10:37PM 42.2164 -103.9522 262° West 433 498 34,000  Level FlightAware ADS-B (KEIK)
10:37PM 42.2078 -104.0393 262° West 432 497 34,000  Level FlightAware ADS-B (KEIK)
10:38PM 42.1967 -104.1515 262° West 431 496 34,000  Level FlightAware ADS-B (KEIK)
10:39PM 42.1835 -104.2835 262° West 431 496 34,000  Level FlightAware ADS-B (KEIK)
10:39PM 42.1736 -104.3815 262° West 429 494 34,000  Level FlightAware ADS-B (KEIK)
10:40PM 42.1620 -104.4947 262° West 428 493 34,000  Level FlightAware ADS-B (KEIK)
10:41PM 42.1514 -104.5983 262° West 427 491 34,000  Level FlightAware ADS-B (KEIK)
10:41PM 42.1401 -104.7071 262° West 425 489 34,000  Level FlightAware ADS-B (KEIK)
10:42PM 42.1287 -104.8157 262° West 423 487 34,000  Level FlightAware ADS-B (KEIK)
10:43PM 42.1177 -104.9205 262° West 422 486 34,000  Level FlightAware ADS-B (KEIK)
10:43PM 42.1073 -105.0175 262° West 422 486 34,000  Level FlightAware ADS-B (KEIK)
10:44PM 42.0965 -105.1176 262° West 427 491 34,000  Level FlightAware ADS-B (KEIK)
10:45PM 42.0841 -105.2309 262° West 428 493 34,000  Level FlightAware ADS-B (KEIK)
10:45PM 42.0714 -105.3473 262° West 427 491 34,000  Level FlightAware ADS-B (KEIK)
10:46PM 42.0596 -105.4540 262° West 426 490 34,000  Level FlightAware ADS-B (KEIK)
10:47PM 42.0481 -105.5584 262° West 425 489 34,000  Level FlightAware ADS-B (KEIK)
10:47PM 42.0359 -105.6658 261° West 424 488 34,000  Level FlightAware ADS-B (KEIK)
10:48PM 42.0239 -105.7707 261° West 423 487 34,000  Level FlightAware ADS-B (KEIK)
10:49PM 42.0124 -105.8720 261° West 411 473 34,000  Level FlightAware ADS-B (KEIK)
10:49PM 42.0007 -105.9732 261° West 407 468 34,000  Level FlightAware ADS-B (KEIK)
10:50PM 41.9902 -106.0641 261° West 399 459 34,000  Level FlightAware ADS-B (KEIK)
10:51PM 41.9776 -106.1717 261° West 395 455 34,000  Level FlightAware ADS-B (KEIK)
10:51PM 41.9667 -106.2638 261° West 393 452 34,000  Level FlightAware ADS-B (KEIK)
10:52PM 41.9561 -106.3528 261° West 391 450 34,000  Level FlightAware ADS-B (KEIK)
10:53PM 41.9433 -106.4596 261° West 389 448 34,000  Level FlightAware ADS-B (KEIK)
10:53PM 41.9320 -106.5532 261° West 389 448 34,000  Level FlightAware ADS-B (KEIK)
10:54PM 41.9205 -106.6481 261° West 391 450 34,000  Level FlightAware ADS-B (KEIK)
10:55PM 41.9072 -106.7539 261° West 393 452 34,000  Level Denver Center
10:56PM 41.8878 -106.9156 261° West 393 452 34,000  Level Denver Center
10:57PM 41.8711 -107.0522 261° West 391 450 34,000 -600 Level Denver Center
10:58PM 41.8489 -107.2119 259° West 391 450 32,800 -2,280 Descending Denver Center
10:59PM 41.8317 -107.3564 261° West 407 468 29,300 -2,280 Descending Denver Center
11:00PM 41.8083 -107.5383 260° West 439 505 28,100 -660 Descending Denver Center
11:01PM 41.7881 -107.6939 260° West 443 510 28,000 -60 Descending Denver Center
11:02PM 41.7728 -107.8514 263° West 443 510 28,000  Level Denver Center
11:03PM 41.7703 -107.9572 268° West 441 507 28,000  Level Salt Lake Center
11:04PM 41.7631 -108.1214 267° West 456 525 28,000  Level Salt Lake Center
11:05PM 41.7531 -108.3133 266° West 462 532 28,000  Level Salt Lake Center
11:06PM 41.7472 -108.4703 267° West 448 516 28,000  Level Salt Lake Center
11:07PM 41.7378 -108.6547 266° West 447 514 28,000  Level Salt Lake Center
11:08PM 41.7303 -108.8114 266° West 446 513 28,000  Level Salt Lake Center
11:09PM 41.7231 -108.9672 266° West 445 512 28,000  Level Salt Lake Center
11:10PM 41.7128 -109.1500 266° West 445 512 28,000  Level Salt Lake Center
11:11PM 41.7050 -109.3075 266° West 446 513 28,000  Level Salt Lake Center
11:12PM 41.6944 -109.4881 266° West 444 511 28,000  Level Salt Lake Center
11:13PM 41.6850 -109.6369 265° West 426 490 28,000  Level Salt Lake Center
11:14PM 41.6756 -109.8128 266° West 425 489 28,000  Level Salt Lake Center
11:15PM 41.6667 -109.9628 266° West 425 489 28,000  Level Salt Lake Center
11:16PM 41.6550 -110.1389 265° West 425 489 28,000  Level Salt Lake Center
11:17PM 41.6458 -110.2903 265° West 426 490 28,000  Level Salt Lake Center
11:18PM 41.6361 -110.4417 265° West 426 490 28,000  Level Salt Lake Center
11:19PM 41.6256 -110.6178 265° West 427 491 28,000  Level Salt Lake Center
11:25PM 41.5539 -111.6058 265° West 429 494 28,000  Level FlightAware ADS-B (KBTF)
11:26PM 41.5457 -111.7133 265° West 431 496 28,000  Level FlightAware ADS-B (KBTF)
11:26PM 41.5390 -111.7984 265° West 433 498 28,000  Level FlightAware ADS-B (KBTF)
11:27PM 41.5308 -111.9038 265° West 435 501 28,000  Level FlightAware ADS-B (KBTF)
11:28PM 41.5238 -111.9934 265° West 437 503 28,000  Level FlightAware ADS-B (KBTF)
11:28PM 41.5195 -112.0481 264° West 439 505 28,000  Level FlightAware ADS-B (KPVU)
11:28PM 41.5152 -112.1027 264° West 439 505 28,000  Level FlightAware ADS-B (KPVU)
11:29PM 41.5070 -112.2047 264° West 442 509 28,000  Level FlightAware ADS-B (KBTF)
11:30PM 41.4983 -112.3138 264° West 443 510 28,000  Level FlightAware ADS-B (KBTF)
11:31PM 41.4873 -112.4461 264° West 444 511 28,000  Level FlightAware ADS-B (KPVU)
11:31PM 41.4782 -112.5541 264° West 445 512 28,000  Level FlightAware ADS-B (KPVU)
11:32PM 41.4711 -112.6373 264° West 445 512 28,000  Level FlightAware ADS-B (KPVU)
11:32PM 41.4631 -112.7322 264° West 446 513 28,000  Level FlightAware ADS-B (KBTF)
11:33PM 41.4549 -112.8289 263° West 447 514 28,000  Level FlightAware ADS-B (KBTF)
11:33PM 41.4472 -112.9180 264° West 448 516 28,000  Level FlightAware ADS-B (KPVU)
11:34PM 41.4393 -113.0085 263° West 448 516 28,000  Level FlightAware ADS-B (KBTF)
11:35PM 41.4308 -113.1040 263° West 448 516 28,000  Level FlightAware ADS-B (KBTF)
11:35PM 41.4233 -113.1880 263° West 449 517 28,000  Level FlightAware ADS-B (KPVU)
11:36PM 41.4131 -113.3016 263° West 449 517 28,000  Level FlightAware ADS-B (KPVU)
11:36PM 41.4055 -113.3837 264° West 450 518 28,000  Level FlightAware ADS-B (KBTF)
11:37PM 41.3960 -113.4869 263° West 452 520 28,000  Level FlightAware ADS-B (KBTF)
11:37PM 41.3870 -113.5851 264° West 452 520 28,000  Level FlightAware ADS-B (KBTF)
11:38PM 41.3768 -113.6947 264° West 453 521 28,000  Level FlightAware ADS-B (KBTF)
11:39PM 41.3660 -113.8065 262° West 455 524 28,000  Level FlightAware ADS-B (KBTF)
11:39PM 41.3453 -113.9131 253° West 452 520 28,000  Level FlightAware ADS-B (KBTF)
11:40PM 41.3165 -114.0320 253° West 451 519 28,000  Level FlightAware ADS-B (KBTF)
11:41PM 41.2903 -114.1398 253° West 451 519 28,000  Level FlightAware ADS-B (KBTF)
11:42PM 41.2650 -114.2431 253° West 451 519 28,000  Level FlightAware ADS-B (KBTF)
11:42PM 41.2409 -114.3480 259° West 451 519 28,000  Level FlightAware ADS-B (KBTF)
11:43PM 41.2382 -114.4609 270° West 454 522 28,000  Level FlightAware ADS-B (KBTF)
11:44PM 41.2385 -114.6078 270° West 456 525 28,000  Level FlightAware ADS-B (KBTF)
11:45PM 41.2408 -114.7428 270° West 454 522 28,000  Level Salt Lake Center
11:46PM 41.2272 -114.9181 264° West 453 521 28,000  Level Salt Lake Center
11:47PM 41.1744 -115.0725 246° West 456 525 28,000  Level Salt Lake Center
11:48PM 41.1250 -115.2264 247° West 458 527 28,000  Level Salt Lake Center
11:49PM 41.0883 -115.3839 253° West 454 522 28,000  Level Salt Lake Center
11:50PM 41.0467 -115.5372 250° West 449 517 28,000  Level Salt Lake Center
11:51PM 41.0019 -115.6900 249° West 447 514 28,000  Level Salt Lake Center
11:52PM 40.9492 -115.8731 249° West 447 514 28,000  Level Salt Lake Center
11:53PM 40.9053 -116.0247 249° West 446 513 28,000  Level Salt Lake Center
11:54PM 40.8603 -116.1792 249° West 447 514 28,000  Level Salt Lake Center
11:55PM 40.8158 -116.3314 249° West 447 514 28,000  Level Salt Lake Center
11:56PM 40.7697 -116.4850 248° West 447 514 28,000  Level Salt Lake Center
11:57PM 40.7239 -116.6381 248° West 449 517 28,000  Level Salt Lake Center
11:58PM 40.6783 -116.7911 249° West 450 518 28,000  Level Salt Lake Center
11:59PM 40.6328 -116.9442 249° West 452 520 28,000  Level Salt Lake Center
12:00AM 40.5769 -117.1267 248° West 453 521 28,000  Level Salt Lake Center
12:01AM 40.5303 -117.2794 248° West 453 521 28,000  Level Salt Lake Center
12:02AM 40.4842 -117.4325 248° West 454 522 28,000  Level Salt Lake Center
12:03AM 40.4386 -117.5853 249° West 454 522 28,000  Level Salt Lake Center
12:04AM 40.3961 -117.7422 250° West 454 522 28,000  Level Salt Lake Center
12:10AM 40.1372 -118.6328 249° West 463 533 28,000  Level FlightAware ADS-B (KAHC)
12:10AM 40.1062 -118.7377 249° West 465 535 28,000  Level FlightAware ADS-B (KAHC)
12:11AM 40.0827 -118.8171 249° West 466 536 28,000  Level FlightAware ADS-B (KAHC)
12:12AM 40.0428 -118.9510 249° West 466 536 28,000  Level FlightAware ADS-B (KAHC)
12:12AM 40.0097 -119.0616 249° West 464 534 28,000  Level FlightAware ADS-B (KAHC)
12:13AM 39.9784 -119.1658 249° West 464 534 28,000  Level FlightAware ADS-B (KAHC)
12:14AM 39.9541 -119.2468 249° West 466 536 28,000  Level FlightAware ADS-B (KAHC)
12:14AM 39.9218 -119.3531 248° West 472 543 28,000  Level FlightAware ADS-B (KAHC)
12:15AM 39.8798 -119.4911 249° West 475 547 28,000  Level FlightAware ADS-B (KAHC)
12:16AM 39.8475 -119.5976 249° West 477 549 28,000  Level FlightAware ADS-B (KAHC)
12:16AM 39.8186 -119.6922 248° West 481 554 28,000  Level FlightAware ADS-B (KAHC)
12:17AM 39.7850 -119.8015 248° West 482 555 28,000  Level FlightAware ADS-B (KAHC)
12:18AM 39.7471 -119.9244 248° West 484 557 28,000  Level FlightAware ADS-B (KAUN)
12:18AM 39.7222 -120.0043 248° West 485 558 28,000  Level FlightAware ADS-B (KAHC)
12:19AM 39.6973 -120.0845 248° West 485 558 28,000  Level FlightAware ADS-B (KAUN)
12:19AM 39.6624 -120.1963 248° West 485 558 28,000  Level FlightAware ADS-B (KAUN)
12:20AM 39.6290 -120.3030 248° West 485 558 28,000  Level FlightAware ADS-B (KAUN)
12:21AM 39.5954 -120.4103 248° West 484 557 28,000  Level FlightAware ADS-B (KAUN)
12:21AM 39.5617 -120.5170 248° West 483 556 28,000  Level FlightAware ADS-B (KAUN)
12:22AM 39.5291 -120.6164 244° Southwest 484 557 28,000  Level FlightAware ADS-B (KAHC)
12:23AM 39.4795 -120.7153 231° Southwest 491 565 28,000  Level FlightAware ADS-B (KAHC)
12:23AM 39.4211 -120.8079 231° Southwest 492 566 28,000  Level FlightAware ADS-B (KAUN)
12:24AM 39.3631 -120.8999 231° Southwest 493 567 28,000  Level FlightAware ADS-B (KAUN)
12:25AM 39.3083 -120.9868 231° Southwest 494 568 28,000  Level FlightAware ADS-B (KAUN)
12:25AM 39.2687 -121.0493 231° Southwest 495 570 28,000  Level FlightAware ADS-B (KAUN)
12:26AM 39.1963 -121.1631 231° Southwest 495 570 28,000  Level FlightAware ADS-B (KAUN)
12:27AM 39.1308 -121.2660 231° Southwest 498 573 28,000  Level FlightAware ADS-B (KAUN)
12:27AM 39.0764 -121.3512 231° Southwest 500 575 28,000  Level FlightAware ADS-B (KAUN)
12:28AM 39.0183 -121.4418 231° Southwest 502 578 28,000  Level FlightAware ADS-B (KAUN)
12:29AM 38.9587 -121.5345 230° Southwest 504 580 28,000  Level FlightAware ADS-B (KAUN)
12:29AM 38.9290 -121.5806 230° Southwest 505 581 28,000  Level FlightAware ADS-B (KAUN)
12:30AM 38.8419 -121.7152 230° Southwest 505 581 28,000  Level FlightAware ADS-B (KAUN)
12:31AM 38.7748 -121.8185 230° Southwest 504 580 28,000  Level FlightAware ADS-B (KAUN)
12:31AM 38.7607 -121.8400 231° Southwest 504 580 28,000  Level FlightAware ADS-B (KSJC)
12:31AM 38.7202 -121.9022 230° Southwest 503 579 28,000  Level FlightAware ADS-B (KAUN)
12:32AM 38.7054 -121.9248 231° Southwest 502 578 28,000  Level FlightAware ADS-B (KSJC)
12:32AM 38.6639 -121.9883 231° Southwest 501 577 28,000  Level FlightAware ADS-B (KSJC)
12:32AM 38.6551 -122.0017 230° Southwest 502 578 28,000  Level FlightAware ADS-B (KAUN)
12:33AM 38.6162 -122.0609 231° Southwest 501 577 28,000  Level FlightAware ADS-B (KSJC)
12:33AM 38.5983 -122.0880 230° Southwest 501 577 28,000  Level FlightAware ADS-B (KAUN)
12:33AM 38.5836 -122.1105 231° Southwest 501 577 28,000  Level FlightAware ADS-B (KSJC)
12:33AM 38.5397 -122.1772 230° Southwest 501 577 28,000  Level FlightAware ADS-B (KAUN)
12:34AM 38.5271 -122.1964 231° Southwest 501 577 28,000 -660 Level FlightAware ADS-B (KSJC)
12:34AM 38.4849 -122.2603 230° Southwest 500 575 27,600 -900 Descending FlightAware ADS-B (KSJC)
12:34AM 38.4781 -122.2707 230° Southwest 501 577 27,500 -3,480 Descending FlightAware ADS-B (KAUN)
12:35AM 38.4448 -122.3210 230° Southwest 505 581 26,100 -3,900 Descending FlightAware ADS-B (KSJC)
12:35AM 38.4187 -122.3608 230° Southwest 508 585 25,000 -2,460 Descending FlightAware ADS-B (KAUN)
12:35AM 38.3632 -122.4444 230° Southwest 492 566 23,900 -1,800 Descending FlightAware ADS-B (KSJC)
12:35AM 38.3662 -122.4400 230° Southwest 488 562 23,800 -1,800 Descending FlightAware ADS-B (KAUN)
12:36AM 38.3259 -122.5005 230° Southwest 474 545 23,000 -1,980 Descending FlightAware ADS-B (KSJC)
12:36AM 38.3010 -122.5379 230° Southwest 469 540 22,500 -2,280 Descending FlightAware ADS-B (KAUN)
12:36AM 38.2781 -122.5726 231° Southwest 462 532 21,900 -2,700 Descending FlightAware ADS-B (KSJC)
12:37AM 38.2501 -122.6145 230° Southwest 445 512 20,800 -2,640 Descending FlightAware ADS-B (KAUN)
12:37AM 38.2453 -122.6216 230° Southwest 441 507 20,600 -3,000 Descending FlightAware ADS-B (KSJC)
12:37AM 38.1986 -122.6904 230° Southwest 429 494 18,900 -3,480 Descending FlightAware ADS-B (KSJC)
12:37AM 38.1951 -122.6955 230° Southwest 429 494 18,700 -2,640 Descending FlightAware ADS-B (KAUN)
12:38AM 38.1626 -122.7449 231° Southwest 421 484 17,600 -2,280 Descending FlightAware ADS-B (KSJC)
12:38AM 38.1234 -122.7946 213° Southwest 411 473 16,500 -2,040 Descending FlightAware ADS-B (KSJC)
12:39AM 38.0845 -122.8134 191° South 401 461 15,900 -2,040 Descending FlightAware ADS-B (KSJC)
12:39AM 38.0484 -122.8126 175° South 392 451 15,200 -2,220 Descending FlightAware ADS-B (KSJC)
12:39AM 38.0328 -122.8072 164° South 390 449 14,800 -2,340 Descending FlightAware ADS-B (KSJC)
12:40AM 38.0002 -122.7827 149° Southeast 381 438 14,000 -2,160 Descending FlightAware ADS-B (KSJC)
12:40AM 37.9905 -122.7722 139° Southeast 375 432 13,700 -2,280 Descending FlightAware ADS-B (KSJC)
12:40AM 37.9593 -122.7385 139° Southeast 369 425 12,500 -2,340 Descending FlightAware ADS-B (KSJC)
12:41AM 37.9100 -122.6852 139° Southeast 363 418 11,400 -1,080 Descending FlightAware ADS-B (KSJC)
12:42AM 37.8465 -122.6166 139° Southeast 373 429 11,100 -360 Descending FlightAware ADS-B (KSJC)
12:42AM 37.8331 -122.6020 139° Southeast 374 430 11,100  Level FlightAware ADS-B
12:42AM 37.8057 -122.5728 139° Southeast 372 428 11,100  Level FlightAware ADS-B (KSJC)
12:43AM 37.7682 -122.5330 140° Southeast 358 412 11,100  Level FlightAware ADS-B
12:43AM 37.7674 -122.5318 139° Southeast 353 406 11,100 -240 Level FlightAware ADS-B (KSJC)
12:43AM 37.7312 -122.4920 135° Southeast 306 352 11,000 -180 Descending FlightAware ADS-B (KSJC)
12:43AM 37.7243 -122.4786 115° Southeast 288 331 11,000  Level FlightAware ADS-B (KSJC)
12:43AM 37.7214 -122.4680 109° East 281 323 11,000  Level FlightAware ADS-B
12:44AM 37.7099 -122.4204 106° East 250 288 11,000 -420 Level FlightAware ADS-B (KSJC)
12:44AM 37.7047 -122.4000 107° East 257 296 10,700 -1,200 Descending FlightAware ADS-B
12:44AM 37.6993 -122.3783 107° East 241 277 10,400 -1,320 Descending FlightAware ADS-B (KSJC)
12:45AM 37.6937 -122.3560 108° East 238 274 10,000 -1,200 Descending FlightAware ADS-B
12:45AM 37.6925 -122.3517 107° East 235 270 10,000 -1,440 Level FlightAware ADS-B (KSJC)
12:45AM 37.6879 -122.3340 108° East 233 268 9,600 -1,620 Descending FlightAware ADS-B
12:45AM 37.6876 -122.3329 107° East 233 268 9,600 -2,040 Level FlightAware ADS-B (KSJC)
12:45AM 37.6828 -122.3140 108° East 234 269 9,100 -2,040 Descending FlightAware ADS-B
12:45AM 37.6825 -122.3128 107° East 234 269 9,100 -1,440 Level FlightAware ADS-B (KSJC)
12:46AM 37.6774 -122.2933 107° East 234 269 8,700 -1,680 Descending FlightAware ADS-B (KSJC)
12:46AM 37.6763 -122.2890 108° East 234 269 8,600 -2,040 Descending FlightAware ADS-B
12:46AM 37.6727 -122.2744 107° East 233 268 8,200 -2,040 Descending FlightAware ADS-B (KSJC)
12:46AM 37.6714 -122.2690 107° East 233 268 8,100 -1,620 Descending FlightAware ADS-B
12:46AM 37.6680 -122.2546 106° East 232 267 7,800 -1,200 Descending FlightAware ADS-B (KSJC)
12:46AM 37.6669 -122.2500 106° East 232 267 7,800 -1,200 Level FlightAware ADS-B
12:46AM 37.6636 -122.2351 105° East 229 264 7,500 -1,800 Descending FlightAware ADS-B (KSJC)
12:46AM 37.6620 -122.2280 106° East 229 264 7,300 -1,620 Descending FlightAware ADS-B
12:47AM 37.6593 -122.2158 105° East 227 261 7,100 -1,620 Descending FlightAware ADS-B (KSJC)
12:47AM 37.6577 -122.2090 105° East 227 261 6,900 -2,040 Descending FlightAware ADS-B
12:47AM 37.6554 -122.1978 105° East 228 262 6,600 -1,680 Descending FlightAware ADS-B (KSJC)
12:47AM 37.6546 -122.1940 106° East 229 264 6,600 -2,400 Level FlightAware ADS-B
12:47AM 37.6534 -122.1890 108° East 231 266 6,400 -2,280 Descending FlightAware ADS-B
12:47AM 37.6518 -122.1849 113° Southeast 233 268 6,300 -1,740 Descending FlightAware ADS-B (KSJC)
12:47AM 37.6496 -122.1810 118° Southeast 235 270 6,200 -2,400 Descending FlightAware ADS-B
12:47AM 37.6483 -122.1787 127° Southeast 237 273 6,100 -3,000 Descending FlightAware ADS-B (KSJC)
12:47AM 37.6467 -122.1760 129° Southeast 238 274 6,000 -2,040 Descending FlightAware ADS-B
12:47AM 37.6447 -122.1740 135° Southeast 239 275 5,900 -1,500 Descending FlightAware ADS-B (KSJC)
12:47AM 37.6345 -122.1620 137° Southeast 238 274 5,600 -1,620 Descending FlightAware ADS-B
12:47AM 37.6325 -122.1594 136° Southeast 238 274 5,500 -1,620 Descending FlightAware ADS-B (KSJC)
12:48AM 37.6226 -122.1470 136° Southeast 238 274 5,200 -1,620 Descending FlightAware ADS-B
12:48AM 37.6206 -122.1450 136° Southeast 237 273 5,100 -900 Descending FlightAware ADS-B (KSJC)
12:48AM 37.6170 -122.1410 137° Southeast 238 274 5,100  Level FlightAware ADS-B
12:48AM 37.6131 -122.1370 143° Southeast 237 273 5,100 -1,020 Level FlightAware ADS-B
12:48AM 37.6127 -122.1368 144° Southeast 236 272 5,000 -2,040 Descending FlightAware ADS-B (KSJC)
12:48AM 37.6102 -122.1350 151° Southeast 234 269 5,000  Level FlightAware ADS-B
12:48AM 37.6086 -122.1343 159° South 232 267 5,000 -780 Level FlightAware ADS-B (KSJC)
12:48AM 37.6018 -122.1330 169° South 229 264 4,900 -900 Descending FlightAware ADS-B
12:48AM 37.5982 -122.1330 181° South 224 258 4,900  Level FlightAware ADS-B
12:48AM 37.5961 -122.1330 184° South 222 255 4,900 -1,200 Level FlightAware ADS-B (KSJC)
12:48AM 37.5937 -122.1340 191° South 219 252 4,800 -1,500 Descending FlightAware ADS-B
12:48AM 37.5916 -122.1346 196° South 217 250 4,800 -1,500 Level FlightAware ADS-B (KSJC)
12:48AM 37.5895 -122.1360 199° South 216 249 4,700 -1,020 Descending FlightAware ADS-B
12:48AM 37.5882 -122.1363 203° Southwest 216 249 4,700 -1,020 Level FlightAware ADS-B (KSJC)
12:48AM 37.5846 -122.1380 203° Southwest 215 247 4,600 -1,320 Descending FlightAware ADS-B
12:48AM 37.5735 -122.1444 204° Southwest 209 241 4,400 -960 Descending FlightAware ADS-B (KSJC)
12:48AM 37.5725 -122.1450 204° Southwest 210 242 4,400 -1,020 Level FlightAware ADS-B
12:49AM 37.5678 -122.1480 205° Southwest 206 237 4,300 -1,380 Descending FlightAware ADS-B
12:49AM 37.5648 -122.1500 211° Southwest 203 234 4,200 -1,500 Descending FlightAware ADS-B
12:49AM 37.5622 -122.1520 219° Southwest 201 231 4,100 -2,040 Descending FlightAware ADS-B
12:49AM 37.5613 -122.1535 225° Southwest 200 230 4,000 -1,500 Descending FlightAware ADS-B (KSJC)
12:49AM 37.5594 -122.1570 233° Southwest 199 229 4,000 -1,500 Level FlightAware ADS-B
12:49AM 37.5587 -122.1583 240° Southwest 199 229 3,900 -2,400 Descending FlightAware ADS-B (KSJC)
12:49AM 37.5576 -122.1610 245° Southwest 199 229 3,800 -1,020 Descending FlightAware ADS-B
12:49AM 37.5570 -122.1635 251° West 197 227 3,800 -720 Level FlightAware ADS-B (KSJC)
12:49AM 37.5531 -122.1805 254° West 189 217 3,600 -1,080 Descending FlightAware ADS-B (KSJC)
12:49AM 37.5510 -122.1890 255° West 186 214 3,400 -1,500 Descending FlightAware ADS-B
12:49AM 37.5503 -122.1940 260° West 187 215 3,300 -2,040 Descending FlightAware ADS-B
12:49AM 37.5503 -122.1941 263° West 186 214 3,200 -1,500 Descending FlightAware ADS-B (KSJC)
12:49AM 37.5502 -122.1970 266° West 186 214 3,200 -1,200 Level FlightAware ADS-B
12:49AM 37.5504 -122.2010 275° West 186 214 3,100 -1,740 Descending FlightAware ADS-B
12:49AM 37.5510 -122.2050 280° West 186 214 3,000 -1,380 Descending FlightAware ADS-B
12:50AM 37.5522 -122.2100 289° West 185 213 2,900 -1,500 Descending FlightAware ADS-B
12:50AM 37.5535 -122.2130 295° West 184 212 2,800 -2,040 Descending FlightAware ADS-B
12:50AM 37.5535 -122.2134 275° West 185 213 2,700 -1,740 Descending FlightAware ADS-B (KSJC)
12:50AM 37.5594 -122.2260 299° West 181 208 2,400 -1,440 Descending FlightAware ADS-B
12:50AM 37.5631 -122.2350 297° West 178 205 2,200 -960 Descending FlightAware ADS-B
12:50AM 37.5685 -122.2490 296° West 176 203 2,000 -960 Descending FlightAware ADS-B
12:50AM 37.5728 -122.2600 298° West 177 204 1,800 -1,080 Descending FlightAware ADS-B
12:51AM 37.5773 -122.2700 297° West 168 193 1,600 -900 Descending FlightAware ADS-B
12:51AM 37.5822 -122.2830 297° West 160 184 1,400 -900 Descending FlightAware ADS-B
12:51AM 37.5867 -122.2930 298° West 154 177 1,200 -840 Descending FlightAware ADS-B
12:51AM 37.5922 -122.3060 298° West 151 174 1,000 -780 Descending FlightAware ADS-B
12:52AM 37.5972 -122.3180 298° West 149 171 800 -780 Descending FlightAware ADS-B
12:52AM 37.6021 -122.3300 297° West 146 168 600 -780 Descending FlightAware ADS-B
12:52AM 37.6069 -122.3420 298° West 145 167 400 -780 Descending FlightAware ADS-B
12:52AM 37.6095 -122.3480 298° West 144 166 300 -960 Descending FlightAware ADS-B
12:52AM 37.6112 -122.3520 298° West 145 167 200 -300 Descending FlightAware ADS-B
12:53AM 37.6219 -122.3772 298° West 161 185 100 -180 Descending Oakland Center